createdAt,value
2023-01-18T00:02:07.831Z,98487.13
2023-01-18T00:04:34.295Z,98488.13
2023-01-18T00:07:00.776Z,98478.06
2023-01-18T00:09:27.246Z,98473.06
2023-01-18T00:11:53.769Z,98471.66
2023-01-18T00:14:20.240Z,98471.09
2023-01-18T00:16:46.670Z,98468.03
2023-01-18T00:19:14.026Z,98460.84
2023-01-18T00:21:40.923Z,98458.13
2023-01-18T00:24:11.022Z,98451.44
2023-01-18T00:26:38.086Z,98447.88
2023-01-18T00:29:05.060Z,98460.03
2023-01-18T00:31:31.757Z,98451.19
2023-01-18T00:33:58.303Z,98458.94
2023-01-18T00:36:24.835Z,98454.78
2023-01-18T00:38:52.254Z,98456.75
2023-01-18T00:41:20.174Z,98458.16
2023-01-18T00:43:46.662Z,98456.41
2023-01-18T00:46:16.278Z,98458.72
2023-01-18T00:48:44.101Z,98464.13
2023-01-18T00:51:14.064Z,98462.56
2023-01-18T00:53:41.139Z,98460.91
2023-01-18T00:56:09.691Z,98473.19
2023-01-18T00:58:37.563Z,98470.69
2023-01-18T01:01:06.374Z,98466.41
2023-01-18T01:03:52.132Z,98475.94
2023-01-18T01:06:43.802Z,98475.56
2023-01-18T01:09:21.078Z,98489.13
2023-01-18T01:12:07.174Z,98492.81
2023-01-18T01:14:54.987Z,98491.31
2023-01-18T01:17:40.183Z,98490.91
2023-01-18T01:20:26.594Z,98500.69
2023-01-18T01:23:11.406Z,98506.78
2023-01-18T01:25:57.186Z,98517.53
2023-01-18T01:28:24.113Z,98521.66
2023-01-18T01:30:50.726Z,98521.66
2023-01-18T01:33:18.002Z,98531.09
2023-01-18T01:35:44.557Z,98537.06
2023-01-18T01:38:11.176Z,98538.84
2023-01-18T01:40:37.597Z,98540.50
2023-01-18T01:43:04.031Z,98537.72
2023-01-18T01:45:32.154Z,98525.00
2023-01-18T01:47:59.412Z,98535.25
2023-01-18T01:50:31.344Z,98540.34
2023-01-18T01:52:58.512Z,98552.78
2023-01-18T01:55:30.196Z,98544.38
2023-01-18T01:58:00.929Z,98540.94
2023-01-18T02:00:27.567Z,98547.97
2023-01-18T02:03:00.732Z,98565.97
2023-01-18T02:09:14.832Z,98561.22
2023-01-18T02:11:42.299Z,98568.47
2023-01-18T02:14:12.866Z,98570.31
2023-01-18T02:17:10.361Z,98568.97
2023-01-18T02:20:01.895Z,98562.44
2023-01-18T02:22:48.495Z,98569.59
2023-01-18T02:25:42.383Z,98563.97
2023-01-18T02:28:10.420Z,98556.22
2023-01-18T02:31:18.046Z,98553.41
2023-01-18T02:34:02.297Z,98555.06
2023-01-18T02:36:38.700Z,98548.88
2023-01-18T02:39:23.563Z,98554.25
2023-01-18T02:42:22.717Z,98558.38
2023-01-18T02:45:08.010Z,98558.13
2023-01-18T02:47:35.202Z,98552.31
2023-01-18T02:50:03.309Z,98556.22
2023-01-18T02:52:41.038Z,98562.75
2023-01-18T02:55:24.419Z,98561.41
2023-01-18T02:57:54.983Z,98567.63
2023-01-18T03:00:23.389Z,98571.72
2023-01-18T03:02:51.793Z,98570.91
2023-01-18T03:05:19.195Z,98572.81
2023-01-18T03:07:58.313Z,98562.06
2023-01-18T03:10:31.078Z,98563.72
2023-01-18T03:13:00.084Z,98565.50
2023-01-18T03:15:56.355Z,98561.09
2023-01-18T03:18:33.501Z,98562.31
2023-01-18T03:21:05.541Z,98563.72
2023-01-18T03:23:42.503Z,98560.19
2023-01-18T03:26:14.590Z,98558.28
2023-01-18T03:29:06.162Z,98554.94
2023-01-18T03:32:03.409Z,98567.63
2023-01-18T03:35:08.039Z,98577.63
2023-01-18T03:37:40.752Z,98576.78
2023-01-18T03:40:12.171Z,98574.53
2023-01-18T03:42:51.915Z,98583.13
2023-01-18T03:45:31.076Z,98587.16
2023-01-18T03:47:57.632Z,98579.47
2023-01-18T03:50:32.078Z,98569.44
2023-01-18T03:53:04.624Z,98568.53
2023-01-18T03:55:56.892Z,98573.66
2023-01-18T03:58:32.364Z,98568.28
2023-01-18T04:00:59.132Z,98563.53
2023-01-18T04:03:25.671Z,98568.78
2023-01-18T04:05:52.421Z,98566.81
2023-01-18T04:08:21.879Z,98568.91
2023-01-18T04:10:48.473Z,98567.25
2023-01-18T04:13:14.985Z,98568.47
2023-01-18T04:15:41.661Z,98573.22
2023-01-18T04:18:08.160Z,98566.16
2023-01-18T04:20:34.640Z,98569.63
2023-01-18T04:23:01.411Z,98580.25
2023-01-18T04:25:27.996Z,98580.50
2023-01-18T04:27:54.480Z,98576.66
2023-01-18T04:30:21.454Z,98566.16
2023-01-18T04:32:47.901Z,98568.53
2023-01-18T04:35:14.432Z,98567.72
2023-01-18T04:37:41.373Z,98575.94
2023-01-18T04:40:08.721Z,98563.78
2023-01-18T04:42:35.221Z,98567.97
2023-01-18T04:45:01.862Z,98571.84
2023-01-18T04:47:29.060Z,98576.84
2023-01-18T04:49:59.060Z,98578.41
2023-01-18T04:52:26.717Z,98590.94
2023-01-18T04:54:53.260Z,98573.16
2023-01-18T04:57:19.655Z,98581.16
2023-01-18T04:59:46.192Z,98578.00
2023-01-18T05:02:15.128Z,98579.69
2023-01-18T05:04:42.092Z,98576.09
2023-01-18T05:07:08.591Z,98588.25
2023-01-18T05:09:35.076Z,98583.13
2023-01-18T05:12:01.838Z,98594.28
2023-01-18T05:14:28.383Z,98594.00
2023-01-18T05:16:54.862Z,98599.97
2023-01-18T05:19:21.360Z,98601.00
2023-01-18T05:21:47.937Z,98608.59
2023-01-18T05:24:14.393Z,98603.88
2023-01-18T05:26:40.874Z,98602.78
2023-01-18T05:29:07.383Z,98607.97
2023-01-18T05:31:53.329Z,98604.78
2023-01-18T05:34:19.976Z,98608.81
2023-01-18T05:36:47.619Z,98612.13
2023-01-18T05:39:14.246Z,98614.16
2023-01-18T05:41:40.662Z,98624.16
2023-01-18T05:44:07.158Z,98620.47
2023-01-18T05:46:33.676Z,98626.97
2023-01-18T05:49:00.057Z,98630.56
2023-01-18T05:51:26.610Z,98626.03
2023-01-18T05:53:53.149Z,98620.31
2023-01-18T05:56:19.647Z,98621.44
2023-01-18T05:58:46.246Z,98620.56
2023-01-18T06:01:13.148Z,98625.25
2023-01-18T06:03:40.650Z,98637.28
2023-01-18T06:06:07.419Z,98645.16
2023-01-18T06:08:33.945Z,98643.63
2023-01-18T06:11:00.927Z,98644.19
2023-01-18T06:13:30.155Z,98640.50
2023-01-18T06:15:58.180Z,98646.81
2023-01-18T06:18:26.429Z,98659.38
2023-01-18T06:20:54.791Z,98657.22
2023-01-18T06:23:21.684Z,98656.81
2023-01-18T06:25:48.128Z,98661.88
2023-01-18T06:28:14.541Z,98655.34
2023-01-18T06:30:42.938Z,98670.41
2023-01-18T06:33:10.170Z,98668.38
2023-01-18T06:35:37.234Z,98676.03
2023-01-18T06:38:04.735Z,98672.13
2023-01-18T06:40:31.321Z,98674.03
2023-01-18T06:42:58.322Z,98679.28
2023-01-18T06:45:25.912Z,98680.13
2023-01-18T06:47:53.208Z,98682.38
2023-01-18T06:50:20.227Z,98681.66
2023-01-18T06:52:46.835Z,98687.41
2023-01-18T06:55:14.443Z,98687.16
2023-01-18T06:57:41.363Z,98686.19
2023-01-18T07:00:09.409Z,98690.97
2023-01-18T07:02:36.389Z,98694.59
2023-01-18T07:05:04.127Z,98693.50
2023-01-18T07:07:31.038Z,98692.66
2023-01-18T07:09:57.621Z,98696.25
2023-01-18T07:12:24.129Z,98697.81
2023-01-18T07:14:51.138Z,98694.97
2023-01-18T07:17:17.594Z,98703.22
2023-01-18T07:19:44.796Z,98699.00
2023-01-18T07:22:12.258Z,98702.47
2023-01-18T07:24:38.865Z,98706.88
2023-01-18T07:27:05.396Z,98709.38
2023-01-18T07:29:31.942Z,98707.16
2023-01-18T07:31:58.443Z,98716.19
2023-01-18T07:34:25.074Z,98716.78
2023-01-18T07:36:51.578Z,98713.03
2023-01-18T07:39:18.077Z,98718.63
2023-01-18T07:41:44.559Z,98725.59
2023-01-18T07:44:11.767Z,98719.16
2023-01-18T07:46:38.581Z,98722.47
2023-01-18T07:49:05.850Z,98731.06
2023-01-18T07:51:33.490Z,98722.94
2023-01-18T07:53:59.992Z,98722.84
2023-01-18T07:56:27.145Z,98722.72
2023-01-18T07:58:53.741Z,98716.13
2023-01-18T08:01:22.554Z,98710.31
2023-01-18T08:03:50.329Z,98705.88
2023-01-18T08:06:22.408Z,98705.97
2023-01-18T08:08:48.985Z,98712.63
2023-01-18T08:11:15.454Z,98720.25
2023-01-18T08:13:41.905Z,98718.84
2023-01-18T08:16:11.396Z,98718.31
2023-01-18T08:18:38.446Z,98716.66
2023-01-18T08:21:05.090Z,98729.53
2023-01-18T08:23:31.578Z,98723.28
2023-01-18T08:26:02.120Z,98728.84
2023-01-18T08:28:28.657Z,98717.16
2023-01-18T08:31:09.872Z,98725.19
2023-01-18T08:33:41.569Z,98729.69
2023-01-18T08:36:11.458Z,98730.81
2023-01-18T08:38:38.095Z,98726.06
2023-01-18T08:41:05.113Z,98735.09
2023-01-18T08:43:31.585Z,98735.94
2023-01-18T08:45:58.021Z,98744.66
2023-01-18T08:48:24.916Z,98741.50
2023-01-18T08:50:51.809Z,98741.97
2023-01-18T08:53:18.348Z,98741.97
2023-01-18T08:55:44.853Z,98742.81
2023-01-18T08:58:12.166Z,98743.38
2023-01-18T09:00:38.724Z,98748.81
2023-01-18T09:03:06.752Z,98756.19
2023-01-18T09:05:35.337Z,98751.75
2023-01-18T09:08:02.029Z,98753.41
2023-01-18T09:10:28.610Z,98755.22
2023-01-18T09:12:55.670Z,98751.91
2023-01-18T09:15:22.212Z,98751.19
2023-01-18T09:17:48.664Z,98759.50
2023-01-18T09:20:18.523Z,98765.97
2023-01-18T09:22:47.640Z,98766.19
2023-01-18T09:25:14.320Z,98764.25
2023-01-18T09:27:40.849Z,98768.09
2023-01-18T09:30:09.588Z,98771.19
2023-01-18T09:32:36.125Z,98772.44
2023-01-18T09:35:02.930Z,98774.56
2023-01-18T09:37:29.522Z,98771.72
2023-01-18T09:39:56.112Z,98776.31
2023-01-18T09:42:29.828Z,98781.78
2023-01-18T09:45:00.729Z,98785.19
2023-01-18T09:47:30.540Z,98785.03
2023-01-18T09:49:59.353Z,98782.97
2023-01-18T09:52:51.598Z,98783.16
2023-01-18T09:55:42.685Z,98779.44
2023-01-18T09:58:19.180Z,98782.69
2023-01-18T10:00:48.568Z,98783.06
2023-01-18T10:03:28.437Z,98781.16
2023-01-18T10:06:08.870Z,98778.94
2023-01-18T10:08:59.641Z,98783.16
2023-01-18T10:11:50.487Z,98783.16
2023-01-18T10:14:40.447Z,98787.31
2023-01-18T10:17:14.590Z,98781.47
2023-01-18T10:19:41.287Z,98777.59
2023-01-18T10:22:33.380Z,98783.16
2023-01-18T10:25:05.460Z,98786.22
2023-01-18T10:28:12.903Z,98777.78
2023-01-18T10:30:58.235Z,98786.78
2023-01-18T10:33:33.320Z,98781.50
2023-01-18T10:36:22.173Z,98789.69
2023-01-18T10:38:52.122Z,98788.84
2023-01-18T10:41:22.127Z,98786.63
2023-01-18T10:43:48.742Z,98792.84
2023-01-18T10:46:18.804Z,98792.59
2023-01-18T10:48:53.680Z,98794.50
2023-01-18T10:51:37.533Z,98792.59
2023-01-18T10:54:26.129Z,98796.75
2023-01-18T10:57:04.606Z,98797.84
2023-01-18T10:59:39.684Z,98802.25
2023-01-18T11:02:20.998Z,98803.13
2023-01-18T11:04:56.671Z,98798.41
2023-01-18T11:07:25.670Z,98796.03
2023-01-18T11:09:55.643Z,98805.03
2023-01-18T11:12:37.150Z,98795.88
2023-01-18T11:15:15.798Z,98801.44
2023-01-18T11:17:58.542Z,98808.09
2023-01-18T11:20:30.844Z,98806.16
2023-01-18T11:23:00.881Z,98808.50
2023-01-18T11:25:37.134Z,98812.00
2023-01-18T11:28:07.414Z,98808.69
2023-01-18T11:30:34.843Z,98806.72
2023-01-18T11:33:01.533Z,98807.25
2023-01-18T11:35:34.164Z,98817.41
2023-01-18T11:38:02.953Z,98817.09
2023-01-18T11:40:32.291Z,98824.59
2023-01-18T11:43:04.343Z,98825.28
2023-01-18T11:45:40.861Z,98821.13
2023-01-18T11:48:13.289Z,98826.66
2023-01-18T11:50:54.207Z,98820.44
2023-01-18T11:54:02.089Z,98830.28
2023-01-18T11:56:42.426Z,98822.81
2023-01-18T11:59:17.768Z,98826.41
2023-01-18T12:01:56.397Z,98825.59
2023-01-18T12:04:39.167Z,98825.56
2023-01-18T12:07:32.151Z,98829.97
2023-01-18T12:10:01.322Z,98830.09
2023-01-18T12:12:55.925Z,98839.66
2023-01-18T12:16:02.170Z,98843.41
2023-01-18T12:18:47.733Z,98845.72
2023-01-18T12:21:24.153Z,98851.13
2023-01-18T12:24:16.448Z,98845.44
2023-01-18T12:27:00.242Z,98849.56
2023-01-18T12:29:58.010Z,98854.06
2023-01-18T12:32:43.740Z,98849.88
2023-01-18T12:35:23.747Z,98851.50
2023-01-18T12:37:50.984Z,98853.88
2023-01-18T12:40:39.032Z,98858.47
2023-01-18T12:43:27.141Z,98860.66
2023-01-18T12:46:07.421Z,98867.22
2023-01-18T12:48:53.139Z,98872.78
2023-01-18T12:51:23.879Z,98868.44
2023-01-18T12:54:26.794Z,98883.47
2023-01-18T12:56:56.388Z,98890.47
2023-01-18T12:59:35.777Z,98891.16
2023-01-18T13:02:22.295Z,98883.94
2023-01-18T13:04:55.425Z,98886.16
2023-01-18T13:07:30.016Z,98884.94
2023-01-18T13:09:57.472Z,98892.84
2023-01-18T13:12:25.917Z,98896.69
2023-01-18T13:15:01.815Z,98904.75
2023-01-18T13:17:47.288Z,98901.69
2023-01-18T13:20:29.591Z,98910.84
2023-01-18T13:22:58.896Z,98911.91
2023-01-18T13:25:40.592Z,98923.19
2023-01-18T13:28:18.052Z,98924.50
2023-01-18T13:30:56.522Z,98925.91
2023-01-18T13:33:26.982Z,98926.34
2023-01-18T13:35:56.416Z,98928.72
2023-01-18T13:38:40.096Z,98939.34
2023-01-18T13:41:11.853Z,98939.06
2023-01-18T13:43:38.453Z,98945.22
2023-01-18T13:46:07.777Z,98950.69
2023-01-18T13:48:55.452Z,98955.38
2023-01-18T13:51:40.341Z,98946.34
2023-01-18T13:54:18.647Z,98964.97
2023-01-18T13:57:05.517Z,98972.41
2023-01-18T13:59:35.591Z,98976.44
2023-01-18T14:02:17.356Z,98969.19
2023-01-18T14:04:43.996Z,98990.38
2023-01-18T14:07:23.044Z,98987.69
2023-01-18T14:09:50.802Z,98987.53
2023-01-18T14:12:50.767Z,98992.56
2023-01-18T14:15:30.451Z,98995.34
2023-01-18T14:17:59.212Z,98998.22
2023-01-18T14:20:45.297Z,98998.22
2023-01-18T14:23:39.284Z,99000.69
2023-01-18T14:26:12.075Z,99014.69
2023-01-18T14:28:48.020Z,99016.03
2023-01-18T14:31:20.991Z,99021.94
2023-01-18T14:33:47.841Z,99027.78
2023-01-18T14:36:26.090Z,99030.53
2023-01-18T14:39:16.270Z,99043.69
2023-01-18T14:41:49.753Z,99048.84
2023-01-18T14:44:56.809Z,99046.47
2023-01-18T14:47:28.278Z,99052.31
2023-01-18T14:49:55.723Z,99061.75
2023-01-18T14:52:27.498Z,99063.66
2023-01-18T14:54:55.811Z,99064.09
2023-01-18T14:57:24.012Z,99062.59
2023-01-18T15:00:08.032Z,99066.66
2023-01-18T15:02:38.792Z,99076.22
2023-01-18T15:05:17.231Z,99078.97
2023-01-18T15:07:46.410Z,99075.41
2023-01-18T15:10:18.684Z,99078.97
2023-01-18T15:12:49.562Z,99088.16
2023-01-18T15:15:26.093Z,99091.75
2023-01-18T15:17:56.483Z,99098.34
2023-01-18T15:20:23.142Z,99104.78
2023-01-18T15:22:51.011Z,99106.44
2023-01-18T15:25:24.249Z,99107.56
2023-01-18T15:27:52.109Z,99115.06
2023-01-18T15:30:22.092Z,99118.66
2023-01-18T15:32:52.949Z,99120.31
2023-01-18T15:35:22.685Z,99128.00
2023-01-18T15:37:49.275Z,99130.59
2023-01-18T15:40:15.903Z,99132.66
2023-01-18T15:42:43.885Z,99142.44
2023-01-18T15:45:19.590Z,99140.16
2023-01-18T15:47:50.163Z,99140.06
2023-01-18T15:50:22.298Z,99146.00
2023-01-18T15:53:06.321Z,99150.34
2023-01-18T15:55:58.423Z,99157.75
2023-01-18T15:58:40.802Z,99155.50
2023-01-18T16:01:13.110Z,99166.38
2023-01-18T16:03:50.093Z,99168.75
2023-01-18T16:06:31.947Z,99176.56
2023-01-18T16:09:21.008Z,99182.28
2023-01-18T16:11:52.722Z,99184.34
2023-01-18T16:14:27.833Z,99189.22
2023-01-18T16:17:20.816Z,99194.13
2023-01-18T16:19:53.646Z,99200.13
2023-01-18T16:22:26.288Z,99200.00
2023-01-18T16:24:56.598Z,99201.66
2023-01-18T16:27:27.647Z,99200.50
2023-01-18T16:30:05.393Z,99210.28
2023-01-18T16:32:34.781Z,99211.25
2023-01-18T16:35:21.054Z,99212.09
2023-01-18T16:37:48.918Z,99222.59
2023-01-18T16:40:23.396Z,99219.41
2023-01-18T16:43:01.375Z,99228.22
2023-01-18T16:45:30.082Z,99232.03
2023-01-18T16:47:56.675Z,99228.72
2023-01-18T16:50:23.506Z,99241.13
2023-01-18T16:52:50.029Z,99243.63
2023-01-18T16:55:17.955Z,99244.97
2023-01-18T16:57:44.799Z,99246.16
2023-01-18T17:00:24.076Z,99251.75
2023-01-18T17:02:50.644Z,99254.75
2023-01-18T17:05:17.478Z,99259.66
2023-01-18T17:07:44.045Z,99262.41
2023-01-18T17:10:26.099Z,99263.81
2023-01-18T17:12:52.683Z,99268.13
2023-01-18T17:15:20.239Z,99275.78
2023-01-18T17:17:47.505Z,99273.84
2023-01-18T17:20:21.049Z,99289.63
2023-01-18T17:22:47.557Z,99288.19
2023-01-18T17:25:15.291Z,99283.16
2023-01-18T17:27:42.105Z,99288.91
2023-01-18T17:30:10.469Z,99293.19
2023-01-18T17:32:37.089Z,99296.41
2023-01-18T17:35:05.693Z,99296.56
2023-01-18T17:37:34.098Z,99299.78
2023-01-18T17:40:16.349Z,99308.50
2023-01-18T17:42:44.723Z,99314.00
2023-01-18T17:45:14.335Z,99317.09
2023-01-18T17:47:42.916Z,99322.25
2023-01-18T17:50:12.142Z,99323.16
2023-01-18T17:52:40.410Z,99324.31
2023-01-18T17:55:10.355Z,99330.53
2023-01-18T17:57:36.949Z,99324.19
2023-01-18T18:00:04.824Z,99333.78
2023-01-18T18:02:31.293Z,99336.41
2023-01-18T18:04:59.361Z,99338.72
2023-01-18T18:07:26.397Z,99350.31
2023-01-18T18:09:58.118Z,99345.16
2023-01-18T18:12:24.552Z,99348.63
2023-01-18T18:14:53.289Z,99357.81
2023-01-18T18:17:20.031Z,99344.78
2023-01-18T18:19:46.467Z,99354.84
2023-01-18T18:22:12.928Z,99359.03
2023-01-18T18:24:39.559Z,99356.66
2023-01-18T18:27:06.124Z,99364.03
2023-01-18T18:29:33.179Z,99364.53
2023-01-18T18:31:59.708Z,99371.38
2023-01-18T18:34:26.233Z,99368.84
2023-01-18T18:36:52.697Z,99372.53
2023-01-18T18:39:19.207Z,99377.47
2023-01-18T18:41:48.289Z,99378.19
2023-01-18T18:44:15.071Z,99382.09
2023-01-18T18:46:42.026Z,99395.44
2023-01-18T18:49:08.535Z,99395.31
2023-01-18T18:51:37.921Z,99398.06
2023-01-18T18:54:05.002Z,99404.34
2023-01-18T18:56:31.866Z,99398.88
2023-01-18T18:58:58.428Z,99408.97
2023-01-18T19:01:29.205Z,99400.06
2023-01-18T19:03:58.484Z,99397.31
2023-01-18T19:06:25.841Z,99411.72
2023-01-18T19:08:52.407Z,99410.78
2023-01-18T19:11:18.945Z,99415.63
2023-01-18T19:13:46.336Z,99416.56
2023-01-18T19:16:14.007Z,99417.41
2023-01-18T19:18:41.179Z,99418.34
2023-01-18T19:21:07.729Z,99421.59
2023-01-18T19:23:34.551Z,99425.59
2023-01-18T19:26:01.164Z,99428.13
2023-01-18T19:28:27.739Z,99428.22
2023-01-18T19:30:54.928Z,99440.28
2023-01-18T19:33:21.433Z,99437.91
2023-01-18T19:35:47.863Z,99449.53
2023-01-18T19:38:14.909Z,99449.22
2023-01-18T19:40:41.949Z,99441.16
2023-01-18T19:43:08.425Z,99449.44
2023-01-18T19:45:37.694Z,99452.25
2023-01-18T19:48:05.101Z,99456.88
2023-01-18T19:50:31.901Z,99451.75
2023-01-18T19:52:58.794Z,99459.19
2023-01-18T19:55:25.596Z,99454.16
2023-01-18T19:57:55.156Z,99451.66
2023-01-18T20:00:21.803Z,99461.59
2023-01-18T20:02:48.396Z,99461.50
2023-01-18T20:05:14.987Z,99461.09
2023-01-18T20:07:41.465Z,99471.03
2023-01-18T20:10:08.382Z,99476.28
2023-01-18T20:12:35.040Z,99474.59
2023-01-18T20:15:01.702Z,99475.13
2023-01-18T20:17:28.196Z,99480.38
2023-01-18T20:19:54.741Z,99474.25
2023-01-18T20:22:22.497Z,99473.63
2023-01-18T20:24:49.298Z,99477.38
2023-01-18T20:27:17.329Z,99485.47
2023-01-18T20:29:44.906Z,99477.38
2023-01-18T20:32:17.128Z,99476.75
2023-01-18T20:34:46.433Z,99481.28
2023-01-18T20:37:13.704Z,99484.63
2023-01-18T20:39:40.244Z,99486.72
2023-01-18T20:42:06.819Z,99484.94
2023-01-18T20:44:33.396Z,99492.47
2023-01-18T20:46:59.911Z,99503.16
2023-01-18T20:49:37.296Z,99499.47
2023-01-18T20:52:05.115Z,99501.25
2023-01-18T20:54:31.618Z,99498.53
2023-01-18T20:56:58.818Z,99508.28
2023-01-18T20:59:25.630Z,99504.94
2023-01-18T21:01:52.992Z,99507.56
2023-01-18T21:04:22.372Z,99512.13
2023-01-18T21:06:49.815Z,99507.31
2023-01-18T21:09:16.940Z,99513.56
2023-01-18T21:11:43.807Z,99517.88
2023-01-18T21:14:10.387Z,99508.72
2023-01-18T21:16:37.009Z,99511.91
2023-01-18T21:19:03.640Z,99521.63
2023-01-18T21:21:31.772Z,99539.44
2023-01-18T21:23:58.645Z,99535.13
2023-01-18T21:26:25.201Z,99545.06
2023-01-18T21:28:51.677Z,99545.91
2023-01-18T21:31:18.305Z,99548.41
2023-01-18T21:33:44.961Z,99549.94
2023-01-18T21:36:17.619Z,99544.50
2023-01-18T21:38:44.598Z,99550.97
2023-01-18T21:41:30.031Z,99560.88
2023-01-18T21:44:15.436Z,99551.81
2023-01-18T21:46:49.705Z,99561.00
2023-01-18T21:49:52.194Z,99560.50
2023-01-18T21:52:39.665Z,99560.34
2023-01-18T21:55:06.264Z,99561.00
2023-01-18T21:57:32.706Z,99567.91
2023-01-18T21:59:59.124Z,99565.66
2023-01-18T22:02:25.773Z,99571.28
2023-01-18T22:05:01.931Z,99576.44
2023-01-18T22:07:30.243Z,99571.28
2023-01-18T22:10:06.105Z,99571.66
2023-01-18T22:12:35.543Z,99574.28
2023-01-18T22:15:03.034Z,99581.38
2023-01-18T22:17:29.864Z,99582.63
2023-01-18T22:19:56.517Z,99575.59
2023-01-18T22:22:22.965Z,99582.88
2023-01-18T22:24:49.630Z,99586.78
2023-01-18T22:27:16.193Z,99595.97
2023-01-18T22:29:42.799Z,99600.53
2023-01-18T22:32:09.332Z,99592.13
2023-01-18T22:34:36.341Z,99597.25
2023-01-18T22:37:03.292Z,99604.47
2023-01-18T22:39:29.943Z,99604.00
2023-01-18T22:41:56.425Z,99613.91
2023-01-18T22:44:23.129Z,99621.19
2023-01-18T22:46:49.618Z,99615.41
2023-01-18T22:49:16.110Z,99619.88
2023-01-18T22:51:42.547Z,99620.53
2023-01-18T22:54:09.063Z,99625.09
2023-01-18T22:56:35.742Z,99621.66
2023-01-18T22:59:02.274Z,99624.25
2023-01-18T23:01:31.453Z,99621.44
2023-01-18T23:04:00.265Z,99631.06
2023-01-18T23:06:28.143Z,99615.66
2023-01-18T23:08:55.892Z,99619.59
2023-01-18T23:11:25.430Z,99620.44
2023-01-18T23:14:15.912Z,99612.16
2023-01-18T23:17:02.030Z,99622.63
2023-01-18T23:19:30.447Z,99615.38
2023-01-18T23:21:57.751Z,99616.22
2023-01-18T23:24:24.442Z,99620.28
2023-01-18T23:26:51.935Z,99619.09
2023-01-18T23:29:18.953Z,99629.75
2023-01-18T23:31:46.703Z,99623.00
2023-01-18T23:34:13.280Z,99628.25
2023-01-18T23:36:39.847Z,99624.88
2023-01-18T23:39:25.142Z,99622.16
2023-01-18T23:42:10.371Z,99624.34
2023-01-18T23:44:55.625Z,99628.03
2023-01-18T23:47:41.006Z,99626.19
2023-01-18T23:50:26.565Z,99638.50
2023-01-18T23:53:11.855Z,99640.56
2023-01-18T23:55:38.389Z,99642.78
2023-01-18T23:58:04.923Z,99640.34
